Walcott, North Dakota
Current Conditions -  °F | °C
As of 6:34 AM on Monday 20 Oct 2014 (Local Time) from KJKJ Reporting Station
Clear Clear  
Wind Chill: 37°   Ceiling: Unl
Heat Index: 37°   Visibility: 10mi
Dew Point: 37°   Wind: 0mph
Humidity: 100%   Direction: NA
Pressure: 30.03"   Gusts: NA
Location:  46.55°N, 96.94°W
Report Text: KJKJ 201134Z AUTO 00000KT 10SM CLR 03/03 A3003 RMK AO2
Loading
Personal Weather Stations






























Interactive Weather Map
Tropical Storm Tracking
New forecast layout! Learn more

10-Day Weather Forecast

Advertisements
Track Severe Weather on mobile